Flight Track Log - Related Links

Times and Time Zones

All times are in EDT time to prevent confusion due to time zone crossing. See the AAL2360 flight status page for this flight to view local times or setup timezone preferences in your user account.

Time Position Orientation Groundspeed Altitude Reporting Facility
EDT Latitude Longitude Course Direction KTS MPH feet Rate Location/Type
Mon 03:37:37 PM 32.8833 -97.0333 357° North 182 209 1,400  Level Dallas / Fort Worth TRACON
Mon 03:38:13 PM 32.8500 -97.0167 157° South 198 228 2,700 1,979 Climbing Dallas / Fort Worth TRACON
Mon 03:39:14 PM 32.7833 -97.0000 168° South 238 274 4,600 2,143 Climbing Dallas / Fort Worth TRACON
Mon 03:40:00 PM 32.8196 -96.8061 10° North  Level FlightAware Approximate
Mon 03:40:19 PM 32.7667 -96.9167 103° East 279 321 7,200  Level Dallas / Fort Worth TRACON
Mon 03:41:00 PM 32.9272 -96.8000 North  Level FlightAware Approximate
Mon 03:42:00 PM 33.0353 -96.8000 North  Level FlightAware Approximate
Mon 03:42:49 PM 32.9197 -96.8094 30° Northeast 310 357 12,000  Level Fort Worth Center
Mon 03:43:00 PM 33.1432 -96.8055 357° North  Level FlightAware Approximate
Mon 03:43:49 PM 33.0281 -96.8114 359° North 353 406 13,900  Level Fort Worth Center
Mon 03:44:49 PM 33.1408 -96.8156 358° North 396 456 16,400 2,300 Climbing Fort Worth Center
Mon 03:45:49 PM 33.2536 -96.8072 North 404 465 18,500 2,100 Climbing Fort Worth Center
Mon 03:46:49 PM 33.3556 -96.7419 28° Northeast 389 448 20,600 1,850 Climbing Fort Worth Center
Mon 03:47:49 PM 33.4575 -96.6789 27° Northeast 399 459 22,200 1,450 Climbing Fort Worth Center
Mon 03:48:49 PM 33.5531 -96.6183 28° Northeast 409 471 23,500 1,450 Climbing Fort Worth Center
Mon 03:49:49 PM 33.6717 -96.5425 28° Northeast 422 486 25,100 1,850 Climbing Fort Worth Center
Mon 03:50:49 PM 33.7775 -96.4739 28° Northeast 422 486 27,200 1,650 Climbing Fort Worth Center
Mon 03:51:49 PM 33.8814 -96.4078 28° Northeast 427 491 28,400 1,350 Climbing Fort Worth Center
Mon 03:52:49 PM 33.9872 -96.3414 27° Northeast 427 491 29,900 1,400 Climbing Fort Worth Center
Mon 03:53:49 PM 34.0911 -96.2750 28° Northeast 427 491 31,200 1,100 Climbing Fort Worth Center
Mon 03:54:49 PM 34.1886 -96.2133 28° Northeast 413 475 32,100 800 Climbing Fort Worth Center
Mon 03:55:49 PM 34.2922 -96.1442 29° Northeast 413 475 32,800 450 Climbing Fort Worth Center
Mon 03:56:49 PM 34.3958 -96.0747 29° Northeast 418 481 33,000 100 Climbing Fort Worth Center
Mon 03:57:49 PM 34.5036 -96.0050 28° Northeast 418 481 33,000  Level Fort Worth Center
Mon 03:58:49 PM 34.6092 -95.9375 28° Northeast 418 481 33,000  Level Fort Worth Center
Mon 03:59:49 PM 34.7147 -95.8700 28° Northeast 423 487 33,000  Level Fort Worth Center
Mon 04:00:49 PM 34.8203 -95.7997 29° Northeast 428 493 33,000  Level Fort Worth Center
Mon 04:01:49 PM 34.9214 -95.7119 35° Northeast 434 499 33,000  Level Fort Worth Center
Mon 04:02:49 PM 35.0203 -95.6236 36° Northeast 440 506 33,000  Level Fort Worth Center
Mon 04:04:56 PM 35.2144 -95.4425 37° Northeast 445 512 33,000  Level Memphis Center
Mon 04:05:56 PM 35.3100 -95.3517 38° Northeast 440 506 33,000  Level Memphis Center
Mon 04:06:56 PM 35.4053 -95.2606 38° Northeast 435 501 33,000  Level Memphis Center
Mon 04:07:56 PM 35.5008 -95.1667 39° Northeast 435 501 33,000  Level Memphis Center
Mon 04:08:56 PM 35.5961 -95.0753 38° Northeast 435 501 33,000  Level Memphis Center
Mon 04:09:56 PM 35.6911 -94.9836 38° Northeast 435 501 33,000  Level Memphis Center
Mon 04:10:56 PM 35.7864 -94.8917 38° Northeast 435 501 33,000  Level Memphis Center
Mon 04:11:56 PM 35.8814 -94.7994 38° Northeast 435 501 33,000  Level Memphis Center
Mon 04:12:56 PM 35.9764 -94.7097 37° Northeast 435 501 33,000  Level Memphis Center
Mon 04:15:16 PM 36.2047 -94.4847 38° Northeast 435 501 33,000  Level Kansas City Center
Mon 04:16:19 PM 36.2992 -94.3917 38° Northeast 435 501 33,000  Level Kansas City Center
Mon 04:17:20 PM 36.3942 -94.2992 38° Northeast 435 501 33,000  Level Kansas City Center
Mon 04:18:23 PM 36.4881 -94.2056 39° Northeast 435 501 33,000  Level Kansas City Center
Mon 04:19:24 PM 36.5839 -94.1122 38° Northeast 436 502 33,000  Level Kansas City Center
Mon 04:20:25 PM 36.6781 -94.0183 39° Northeast 435 501 33,000  Level Kansas City Center
Mon 04:21:29 PM 36.7917 -93.9056 38° Northeast 434 499 33,000  Level Kansas City Center
Mon 04:22:29 PM 36.8844 -93.8111 39° Northeast 432 497 33,000  Level Kansas City Center
Mon 04:23:32 PM 36.9758 -93.7206 38° Northeast 430 495 33,000  Level Kansas City Center
Mon 04:24:34 PM 37.0689 -93.6247 39° Northeast 431 496 33,000  Level Kansas City Center
Mon 04:25:35 PM 37.1628 -93.5317 38° Northeast 430 495 33,000  Level Kansas City Center
Mon 04:26:39 PM 37.2758 -93.4169 39° Northeast 432 497 33,000  Level Kansas City Center
Mon 04:27:40 PM 37.3708 -93.3231 38° Northeast 433 498 33,000  Level Kansas City Center
Mon 04:28:44 PM 37.4664 -93.2328 37° Northeast 429 494 33,000  Level Kansas City Center
Mon 04:29:45 PM 37.5636 -93.1439 36° Northeast 430 495 33,000  Level Kansas City Center
Mon 04:30:46 PM 37.6614 -93.0558 35° Northeast 428 493 33,000  Level Kansas City Center
Mon 04:31:49 PM 37.7553 -92.9656 37° Northeast 426 490 33,000  Level Kansas City Center
Mon 04:32:49 PM 37.8528 -92.8742 36° Northeast 428 493 33,000  Level Kansas City Center
Mon 04:33:54 PM 37.9506 -92.7833 36° Northeast 430 495 33,000  Level Kansas City Center
Mon 04:34:55 PM 38.0653 -92.6739 37° Northeast 434 499 33,000  Level Kansas City Center
Mon 04:35:55 PM 38.1625 -92.5842 36° Northeast 434 499 33,000  Level Kansas City Center
Mon 04:36:59 PM 38.2658 -92.4869 36° Northeast 435 501 33,000  Level Kansas City Center
Mon 04:38:01 PM 38.3625 -92.3928 37° Northeast 435 501 33,000  Level Kansas City Center
Mon 04:39:02 PM 38.4592 -92.3006 37° Northeast 432 497 33,000  Level Kansas City Center
Mon 04:40:05 PM 38.5567 -92.2072 37° Northeast 434 499 33,000  Level Kansas City Center
Mon 04:41:06 PM 38.6525 -92.1153 37° Northeast 432 497 33,000  Level Kansas City Center
Mon 04:42:08 PM 38.7497 -92.0214 37° Northeast 433 498 33,000  Level Kansas City Center
Mon 04:43:12 PM 38.8658 -91.9114 36° Northeast 432 497 33,000  Level Kansas City Center
Mon 04:44:13 PM 38.9600 -91.8175 38° Northeast 429 494 33,000  Level Kansas City Center
Mon 04:45:14 PM 39.0544 -91.7278 36° Northeast 424 488 33,000  Level Kansas City Center
Mon 04:46:17 PM 39.1386 -91.6444 38° Northeast 422 486 33,000  Level Kansas City Center
Mon 04:47:18 PM 39.2525 -91.5328 37° Northeast 426 490 33,000  Level Kansas City Center
Mon 04:48:20 PM 39.3486 -91.4372 38° Northeast 430 495 33,000  Level Kansas City Center
Mon 04:49:24 PM 39.4431 -91.3450 37° Northeast 429 494 33,000  Level Kansas City Center
Mon 04:50:25 PM 39.5386 -91.2511 37° Northeast 429 494 33,000  Level Kansas City Center
Mon 04:51:26 PM 39.6336 -91.1556 38° Northeast 430 495 33,000  Level Kansas City Center
Mon 04:52:30 PM 39.7289 -91.0611 37° Northeast 430 495 33,000  Level Kansas City Center
Mon 04:53:31 PM 39.8250 -90.9636 38° Northeast 431 496 33,000  Level Kansas City Center
Mon 04:54:34 PM 39.9394 -90.8508 37° Northeast 430 495 33,000  Level Kansas City Center
Mon 04:55:34 PM 40.0350 -90.7533 38° Northeast 433 498 33,000  Level Kansas City Center
Mon 04:56:38 PM 40.1328 -90.6525 38° Northeast 443 510 33,000  Level Kansas City Center
Mon 04:57:38 PM 40.2317 -90.5533 37° Northeast 446 513 33,000  Level Kansas City Center
Mon 04:58:42 PM 40.3292 -90.4528 38° Northeast 446 513 33,000  Level Kansas City Center
Mon 04:59:42 PM 40.4278 -90.3522 38° Northeast 445 512 33,000  Level Kansas City Center
Mon 05:00:47 PM 40.5256 -90.2508 38° Northeast 447 514 33,000 -744 Level Kansas City Center
Mon 05:01:43 PM 40.6314 -90.1425 38° Northeast 447 514 31,500 -1,525 Descending Chicago Center
Mon 05:02:45 PM 40.7314 -90.0403 38° Northeast 456 525 30,000 -1,440 Descending Chicago Center
Mon 05:03:48 PM 40.8342 -89.9356 38° Northeast 467 537 28,500 -1,584 Descending Chicago Center
Mon 05:04:50 PM 40.9489 -89.8075 40° Northeast 451 519 26,700 -1,694 Descending Chicago Center
Mon 05:05:52 PM 41.0311 -89.6764 50° Northeast 469 540 25,000 -1,403 Descending Chicago Center
Mon 05:06:54 PM 41.0969 -89.5447 56° Northeast 422 486 23,800 -1,548 Descending Chicago Center
Mon 05:07:56 PM 41.1625 -89.4175 56° Northeast 416 479 21,800 -1,935 Descending Chicago Center
Mon 05:08:58 PM 41.2256 -89.2908 56° Northeast 410 472 19,800 -2,129 Descending Chicago Center
Mon 05:10:00 PM 41.2925 -89.1519 57° Northeast 385 443 17,400 -2,129 Descending Chicago Center
Mon 05:11:02 PM 41.3508 -89.0361 56° Northeast 379 436 15,400 -1,935 Descending Chicago Center
Mon 05:12:04 PM 41.4072 -88.9194 57° Northeast 377 434 13,400 -1,790 Descending Chicago Center
Mon 05:13:06 PM 41.4650 -88.8044 56° Northeast 375 432 11,700 -1,152 Descending Chicago Center
Mon 05:14:09 PM 41.5147 -88.7008 57° Northeast 337 388 11,000 -336 Descending Chicago Center
Mon 05:15:11 PM 41.5522 -88.6033 63° Northeast 300 345 11,000 -145 Level Chicago Center
Mon 05:16:13 PM 41.6003 -88.4853 61° Northeast 303 349 10,700 -871 Descending Chicago Center
Mon 05:17:15 PM 41.6494 -88.3972 53° Northeast 298 343 9,200 -1,452 Descending Chicago Center
Mon 05:18:17 PM 41.7183 -88.3647 19° North 281 323 7,700 -1,065 Descending Chicago Center
Mon 05:19:19 PM 41.7928 -88.3581 North 270 311 7,000 -823 Descending Chicago Center
Mon 05:20:21 PM 41.8667 -88.3422 North 269 310 6,000 -919 Descending Chicago Center
Mon 05:21:23 PM 41.9375 -88.3125 17° North 266 306 5,100 -871 Descending Chicago Center
Mon 05:22:25 PM 41.9678 -88.2056 69° East 278 320 4,200 -871 Descending Chicago Center

Login

Don't have an account? Register now (free) for customized features, flight alerts, and more!